Terminal Aerodrome Forecast
Issued by NWS

Home | Current Version | Previous Version | Text Only | Print | Product List | Glossary On
Versions: 1 2 3 4 5 6 7 8 9 10 11 12 13 14 15 16 17 18 19
000
FTUS42 KJAX 161900 AAC
TAFCRG
TAF AMD
KCRG 161933Z 1620/1718 25004KT P6SM VCTS SCT022 BKN035CB OVC250
      TEMPO 1620/1623 VRB10G20KT 1 1/2SM TSRA BKN012CB OVC120
     FM170200 24005KT P6SM SCT020 OVC100
     FM171500 32006KT P6SM FEW020 SCT250=

USA.gov is the U.S. government's official web portal to all federal, state and local government web resources and services.